Terminal Aerodrome Forecast
Issued by NWS

Home | Current Version | Previous Version | Text Only | Print | Product List | Glossary On
Versions: 1 2 3 4 5 6 7 8 9 10 11 12
545
FTUS42 KGSP 221136
TAFAND
TAF
KAND 221136Z 2212/2312 15003KT P6SM FEW250
     FM221800 15006KT P6SM BKN025
     FM222300 14007KT 5SM -SHRA OVC018
     FM230300 17010G17KT 3SM -SHRA BR OVC007 PROB30 2306/2309 1SM TS
      BR OVC003CB
     FM230900 23011G17KT 6SM -SHRA BR BKN013
     FM231100 25010G17KT 6SM BR SCT050=

USA.gov is the U.S. government's official web portal to all federal, state and local government web resources and services.